| time (UTC) | temp F | wind direction | speed MPH | gust MPH | rain 1hr in | rain 24hr in | rain mn in | humidity % | barometer mb |
| 20260504045708 | 56 | 273 | 1.0 | 3.0 | 0.00 | 0.00 | 0.00 | 63 | 1008.3 |
| 20260504044808 | 57 | 247 | 1.0 | 3.0 | 0.00 | 0.00 | 0.00 | 63 | 1008.3 |
| 20260504040910 | 59 | 239 | 4.0 | 7.0 | 0.00 | 0.00 | 0.00 | 59 | 1008.2 |
| 20260504040807 | 59 | 244 | 4.0 | 7.0 | 0.00 | 0.00 | 0.00 | 60 | 1008.3 |
| 20260504035808 | 59 | 224 | 3.0 | 7.0 | 0.00 | 0.00 | 0.00 | 58 | 1008.3 |
| 20260504034906 | 59 | 231 | 3.0 | 7.0 | 0.00 | 0.00 | 0.00 | 59 | 1008.2 |
| 20260504034806 | 59 | 233 | 6.0 | 9.0 | 0.00 | 0.00 | 0.00 | 58 | 1008.2 |
| 20260504033808 | 59 | 234 | 5.0 | 7.0 | 0.00 | 0.00 | 0.00 | 58 | 1008.5 |
| 20260504032805 | 60 | 236 | 4.0 | 6.0 | 0.00 | 0.00 | 0.00 | 57 | 1008.3 |
| 20260504030809 | 60 | 232 | 4.0 | 7.0 | 0.00 | 0.00 | 0.00 | 57 | 1008.6 |
| 20260504025907 | 60 | 233 | 4.0 | 9.0 | 0.00 | 0.00 | 0.00 | 57 | 1008.7 |
| 20260504025007 | 60 | 243 | 4.0 | 6.0 | 0.00 | 0.00 | 0.00 | 57 | 1008.6 |
| 20260504024008 | 60 | 236 | 3.0 | 9.0 | 0.00 | 0.00 | 0.00 | 55 | 1008.7 |
| 20260504022008 | 61 | 245 | 2.0 | 4.0 | 0.00 | 0.00 | 0.00 | 54 | 1008.6 |
| 20260504021010 | 61 | 238 | 2.0 | 6.0 | 0.00 | 0.00 | 0.00 | 54 | 1008.3 |
| 20260504020009 | 61 | 226 | 0.0 | 4.0 | 0.00 | 0.00 | 0.00 | 53 | 1008.5 |
| 20260504015008 | 61 | 225 | 3.0 | 6.0 | 0.00 | 0.00 | 0.00 | 52 | 1008.3 |
| 20260504014009 | 62 | 242 | 2.0 | 3.0 | 0.00 | 0.00 | 0.00 | 50 | 1008.3 |
| 20260504013008 | 62 | 247 | 1.0 | 3.0 | 0.00 | 0.00 | 0.00 | 49 | 1008.3 |
| 20260504012009 | 63 | 247 | 2.0 | 2.0 | 0.00 | 0.00 | 0.00 | 49 | 1008.1 |
| 20260504011009 | 63 | 227 | 1.0 | 4.0 | 0.00 | 0.00 | 0.00 | 49 | 1007.8 |
| 20260504005008 | 65 | 237 | 2.0 | 4.0 | 0.00 | 0.00 | 0.00 | 47 | 1007.8 |
| 20260504004009 | 65 | 239 | 3.0 | 6.0 | 0.00 | 0.00 | 0.00 | 45 | 1007.8 |
| 20260504003907 | 65 | 239 | 4.0 | 5.0 | 0.00 | 0.00 | 0.00 | 45 | 1007.8 |
| 20260504002906 | 66 | 241 | 3.0 | 5.0 | 0.00 | 0.00 | 0.00 | 45 | 1007.8 |
| 20260504001922 | 66 | 257 | 4.0 | 6.0 | 0.00 | 0.00 | 0.00 | 44 | 1007.8 |
| 20260504001008 | 67 | 247 | 2.0 | 6.0 | 0.00 | 0.00 | 0.00 | 44 | 1007.7 |
| 20260503235008 | 67 | 265 | 5.0 | 8.0 | 0.00 | 0.00 | 0.00 | 43 | 1007.7 |
| 20260503234008 | 67 | 236 | 6.0 | 12.0 | 0.00 | 0.00 | 0.00 | 42 | 1007.8 |
| 20260503233908 | 67 | 254 | 4.0 | 7.0 | 0.00 | 0.00 | 0.00 | 41 | 1007.8 |
| 20260503233008 | 68 | 257 | 7.0 | 11.0 | 0.00 | 0.00 | 0.00 | 42 | 1007.7 |
| 20260503232909 | 68 | 254 | 6.0 | 9.0 | 0.00 | 0.00 | 0.00 | 41 | 1007.7 |
| 20260503231908 | 67 | 268 | 4.0 | 6.0 | 0.00 | 0.00 | 0.00 | 41 | 1007.9 |
| 20260503230006 | 68 | 276 | 6.0 | 10.0 | 0.00 | 0.00 | 0.00 | 40 | 1008.1 |
| 20260503225922 | 68 | 281 | 6.0 | 13.0 | 0.00 | 0.00 | 0.00 | 41 | 1008.2 |
| 20260503225006 | 68 | 264 | 7.0 | 14.0 | 0.00 | 0.00 | 0.00 | 40 | 1008.0 |
| 20260503224908 | 68 | 259 | 9.0 | 14.0 | 0.00 | 0.00 | 0.00 | 41 | 1008.0 |
| 20260503223909 | 67 | 285 | 8.0 | 15.0 | 0.00 | 0.00 | 0.00 | 41 | 1008.1 |
| 20260503222909 | 68 | 287 | 7.0 | 21.0 | 0.00 | 0.00 | 0.00 | 40 | 1008.1 |
| 20260503221008 | 67 | 235 | 4.0 | 8.0 | 0.00 | 0.00 | 0.00 | 41 | 1008.0 |
| 20260503220107 | 67 | 246 | 6.0 | 17.0 | 0.00 | 0.00 | 0.00 | 42 | 1008.0 |
| 20260503215108 | 67 | 242 | 9.0 | 15.0 | 0.00 | 0.00 | 0.00 | 42 | 1008.2 |
| 20260503215006 | 67 | 231 | 11.0 | 16.0 | 0.00 | 0.00 | 0.00 | 42 | 1008.3 |
| 20260503214008 | 66 | 213 | 10.0 | 17.0 | 0.00 | 0.00 | 0.00 | 42 | 1008.5 |
| 20260503213008 | 66 | 225 | 11.0 | 20.0 | 0.00 | 0.00 | 0.00 | 42 | 1008.6 |
| 20260503212008 | 66 | 235 | 8.0 | 18.0 | 0.00 | 0.00 | 0.00 | 42 | 1008.6 |
| 20260503211908 | 66 | 239 | 9.0 | 19.0 | 0.00 | 0.00 | 0.00 | 43 | 1008.7 |
| 20260503210007 | 65 | 242 | 8.0 | 13.0 | 0.00 | 0.00 | 0.00 | 43 | 1009.0 |
| 20260503205022 | 65 | 261 | 11.0 | 27.0 | 0.00 | 0.00 | 0.00 | 42 | 1009.2 |
| 20260503204008 | 65 | 234 | 13.0 | 20.0 | 0.00 | 0.00 | 0.00 | 42 | 1009.6 |
| 20260503203107 | 63 | 244 | 13.0 | 21.0 | 0.00 | 0.00 | 0.00 | 43 | 1009.6 |
| 20260503202108 | 63 | 221 | 10.0 | 19.0 | 0.00 | 0.00 | 0.00 | 43 | 1010.0 |
| 20260503201108 | 64 | 218 | 11.0 | 19.0 | 0.00 | 0.00 | 0.00 | 44 | 1010.2 |
| 20260503200108 | 63 | 207 | 10.0 | 18.0 | 0.00 | 0.00 | 0.00 | 48 | 1010.2 |
| 20260503195108 | 62 | 223 | 6.0 | 11.0 | 0.00 | 0.00 | 0.00 | 50 | 1010.3 |
| 20260503194108 | 62 | 233 | 7.0 | 19.0 | 0.00 | 0.00 | 0.00 | 50 | 1010.6 |
| 20260503193108 | 61 | 212 | 12.0 | 19.0 | 0.00 | 0.00 | 0.00 | 51 | 1011.0 |
| 20260503192109 | 61 | 224 | 14.0 | 19.0 | 0.00 | 0.00 | 0.00 | 51 | 1011.2 |
| 20260503191205 | 61 | 235 | 6.0 | 14.0 | 0.00 | 0.00 | 0.00 | 50 | 1011.2 |
| 20260503190208 | 60 | 235 | 9.0 | 15.0 | 0.00 | 0.00 | 0.00 | 49 | 1011.1 |
| 20260503185209 | 59 | 216 | 12.0 | 21.0 | 0.00 | 0.00 | 0.00 | 50 | 1011.1 |
| 20260503184306 | 59 | 218 | 10.0 | 15.0 | 0.00 | 0.00 | 0.00 | 49 | 1011.2 |
| 20260503184207 | 59 | 236 | 8.0 | 14.0 | 0.00 | 0.00 | 0.00 | 49 | 1011.2 |
| 20260503184108 | 59 | 212 | 10.0 | 18.0 | 0.00 | 0.00 | 0.00 | 49 | 1011.2 |
| 20260503183107 | 59 | 222 | 14.0 | 27.0 | 0.00 | 0.00 | 0.00 | 51 | 1011.4 |
| 20260503182108 | 58 | 231 | 12.0 | 20.0 | 0.00 | 0.00 | 0.00 | 51 | 1011.4 |
| 20260503181107 | 58 | 231 | 13.0 | 20.0 | 0.00 | 0.00 | 0.00 | 52 | 1011.8 |
| 20260503180207 | 58 | 238 | 9.0 | 17.0 | 0.00 | 0.00 | 0.00 | 54 | 1012.1 |
| 20260503180106 | 58 | 213 | 8.0 | 21.0 | 0.00 | 0.00 | 0.00 | 54 | 1012.2 |
| 20260503175109 | 57 | 208 | 9.0 | 17.0 | 0.00 | 0.00 | 0.00 | 54 | 1012.3 |
| 20260503174207 | 57 | 189 | 7.0 | 15.0 | 0.00 | 0.00 | 0.00 | 54 | 1012.3 |
| 20260503173208 | 57 | 212 | 10.0 | 23.0 | 0.00 | 0.00 | 0.00 | 56 | 1013.0 |
| 20260503172207 | 56 | 211 | 11.0 | 17.0 | 0.00 | 0.00 | 0.00 | 57 | 1013.1 |
| 20260503171208 | 56 | 213 | 8.0 | 22.0 | 0.00 | 0.00 | 0.00 | 61 | 1013.3 |
| 20260503170306 | 55 | 213 | 5.0 | 9.0 | 0.00 | 0.00 | 0.00 | 62 | 1013.8 |
| 20260503150422 | 54 | 251 | 6.0 | 12.0 | 0.00 | 0.00 | 0.00 | 56 | 1015.7 |
| 20260503150307 | 54 | 267 | 9.0 | 19.0 | 0.00 | 0.00 | 0.00 | 57 | 1015.6 |
| 20260503140308 | 50 | 229 | 4.0 | 9.0 | 0.00 | 0.01 | 0.00 | 62 | 1015.8 |
| 20260503130607 | 48 | 245 | 8.0 | 12.0 | 0.00 | 0.01 | 0.00 | 61 | 1016.3 |
| 20260503100109 | 46 | 226 | 6.0 | 8.0 | 0.00 | 0.01 | 0.00 | 58 | 1016.0 |
| 20260503090307 | 46 | 240 | 5.0 | 8.0 | 0.00 | 0.01 | 0.00 | 54 | 1016.4 |
| 20260503081109 | 47 | 231 | 5.0 | 8.0 | 0.00 | 0.01 | 0.00 | 51 | 1016.8 |
| 20260503081008 | 47 | 235 | 8.0 | 12.0 | 0.00 | 0.01 | 0.00 | 51 | 1016.7 |
| 20260503072008 | 47 | 241 | 7.0 | 13.0 | 0.00 | 0.01 | 0.00 | 50 | 1017.0 |
| 20260503071007 | 47 | 240 | 5.0 | 7.0 | 0.00 | 0.01 | 0.00 | 50 | 1016.9 |
| 20260503070906 | 47 | 242 | 5.0 | 10.0 | 0.00 | 0.01 | 0.00 | 51 | 1016.9 |